Current Conditions
Light Rain
Showers



Pressure
29.99 (inHG) - 1015.62 (mb)
Visibility

10.0 (mimiles) - 16.1 (km)
   Temperature
77  °F
25°C
73  °F
Dewpoint
89  %
 Humidity
   Wind Speed
10  mph
9  kts
16  km/h
4.5  m/s
   Wind Direction
 110°
East South
East
   Airport Data
KDWH
Location David Wayne Hooks Memorial 4.4 mi (7.08 km)
Metar :KDWH 202353Z 11009KT 10SM -RA SCT050 BKN080 BKN100 25/23 A2999 RMK AO2 SLP153 P0003 60069 T02500228 10289 20233 51002
Fri 20th September 18:53 pm
   Raw Metar Info
Raw METAR is the most common format in the world for the transmission of observational weather data. It is highly standardized through the International Civil Aviation Organization (ICAO), which allows it to be understood throughout most of the world.
   API Info
Data Provided by
https://www.checkwx.com/weather/KDWH
   © Info
CSS/SVG/PHP scripts were developed by weather34.com for use in the weather34 template © 2015-2019

Guide Info provided by Metar-Wikipedia